Flight Number: EUR1561 Duration: 6:00
Departure: Jeddah King Abdul Aziz (OEJN) at 00:00 Distance: 2544 Nm
Arrival: Gatwick Airport (EGKK) at 06:00 Equipment: B777

Weather Information
Jeddah King Abdul Aziz International Airport , Saudi Arabia (OEJN) 21-42N 039-11E 17M May 20, 2018 - 10:00 AM EDT / 2018.05.20 1400 UTC
Wind: from the WSW (240 degrees) at 15 MPH (13 KT):0
Visibility: 4 mile(s):0 Temperature: 89 F (32 C) Dew Point: 69 F (21 C) Relative Humidity: 52% Pressure (altimeter): 29.65 in. Hg (1004 hPa)
ob: OEJN 201400Z 24013KT 7000 NSC 32/21 Q1004 NOSIG cycle: 14
Sunrise: 02:45 Sunset: 15:54 (UTC)

London / Gatwick Airport, United Kingdom (EGKK) 51-09N 000-11W 0M May 20, 2018 - 09:50 AM EDT / 2018.05.20 1350 UTC
Wind: from the ENE (070 degrees) at 8 MPH (7 KT) (direction variable):0
Visibility: greater than 7 mile(s):0 Temperature: 66 F (19 C) Dew Point: 51 F (11 C) Relative Humidity: 59% Pressure (altimeter): 30.15 in. Hg (1021 hPa)
ob: EGKK 201350Z 07007KT 020V110 CAVOK 19/11 Q1021 cycle: 14
Sunrise: 04:06 Sunset: 19:47 (UTC)

TAF:2018/05/20 12:16 TAF EGKK 201052Z 2012/2118 07006KT 9999 SCT035 BECMG 2022/2101 7000 TEMPO 2101/2108 3000 BR BKN004 PROB30 TEMPO 2101/2107 0500 FG BKN001 BECMG 2107/2110 9999 PROB30 TEMPO 2110/2114 6000 SHRA

Previous Pireps for this route
Date Aircraft Flight time Fuel used Landing rate On time
2015-04-03B757-20007.2210Charter
2016-01-26B7775.32155672-391Yes
2016-05-15B7776.091367440Charter
(pireps marked green are flown by you)

Route map